Barronett, Wisconsin
Current Conditions -  °F | °C
As of 2:55 AM on Friday 24 Oct 2014 (Local Time) from KUBE Reporting Station
Haze Haze  
Wind Chill:   Ceiling: 200
Heat Index:   Visibility: 1.7mi
Dew Point:   Wind: 6mph
Humidity: 93%   Direction: 180°S
Pressure: 29.98"   Gusts: NA
Location:  45.64°N, 91.99°W
Report Text: KUBE 240755Z AUTO 18005KT 1 3/4SM BR OVC002 09/08 A2998 RMK AO2
Loading
Personal Weather Stations






























Interactive Weather Map
Tropical Storm Tracking
New forecast layout! Learn more

10-Day Weather Forecast

Advertisements
Track Severe Weather on mobile